Mooresville, Texas
Current Conditions -  °F | °C
As of 10:55 PM on Monday 20 Oct 2014 (Local Time) from KPWG Reporting Station
Clear Clear  
Wind Chill: 64°   Ceiling: Unl
Heat Index: 64°   Visibility: 10mi
Dew Point: 54°   Wind: 3mph
Humidity: 68%   Direction: 150°SSE
Pressure: 30.07"   Gusts: NA
Location:  31.2985°N, 97.112°W
Report Text: KPWG 210355Z AUTO 15003KT 10SM CLR 18/12 A3007 RMK AO1
Loading
Personal Weather Stations






























Interactive Weather Map
Tropical Storm Tracking
New forecast layout! Learn more

10-Day Weather Forecast

Advertisements
Track Severe Weather on mobile